Maersk Bulan — 9V7693 — position and weather

sailwx.info

Track history (hours):
 
Tides and Currents Weather Stations Pressure Air Temp Water Temp Dewpoint Dewpoint Depression Visibility Wind Speed Wind Dir Waves Ship Positions

Maersk Bulan

Last reported at 2015-Jan-21 10:25 UTC. Time now 2015-Jan-28 09:15 UTC.
Position N 34°38' W 024°11'.

Length 223 m; draft 11.3 m.

Type: Ship (hazmat cat A). MMSI: 563455000.

Date/timePositionNaut miles runAvg speedWind from/ knotsBaromVisibWave heightAir tempDewpointWater temp
2015-Jan-21 10:25N 34°38' W 024°11'1719.5
2015-Jan-21 09:34N 34°43' W 023°52'2119.7
2015-Jan-21 08:30N 34°45' W 023°27'  
2015-Jan-16 12:26N 37°42' E 009°23'14618.6
2015-Jan-16 04:33N 36°58' E 012°18'2718.9
2015-Jan-16 03:09N 36°50' E 012°50'1118.8
2015-Jan-16 02:33N 36°47' E 013°04'1919.2
2015-Jan-16 01:33N 36°43' E 013°27'1918.7
2015-Jan-16 00:33N 36°37' E 013°49'1918.9
2015-Jan-15 23:33N 36°31' E 014°12'1918.8
2015-Jan-15 22:33N 36°25' E 014°34'1918.5
2015-Jan-15 21:33N 36°20' E 014°56'40717.7
2015-Jan-14 22:31N 36°29' E 023°23'2218.9
2015-Jan-14 21:22N 36°46' E 023°40'1518.6
2015-Jan-14 20:33N 36°57' E 023°52'2118.9
2015-Jan-14 19:27N 37°14' E 024°07'1718.6
2015-Jan-14 18:31N 37°29' E 024°20'1818.9
2015-Jan-14 17:33N 37°44' E 024°33'2419.1
2015-Jan-14 16:19N 38°05' E 024°46'2118.7
2015-Jan-14 15:12N 38°20' E 025°04'  
Track history (hours):
 
Tides and Currents Weather Stations Pressure Air Temp Water Temp Dewpoint Dewpoint Depression Visibility Wind Speed Wind Dir Waves Ship Positions

Maersk Bulan

Last reported at 2015-Jan-21 10:25 UTC. Time now 2015-Jan-28 09:15 UTC.
Position N 34°38' W 024°11'.

Length 223 m; draft 11.3 m.

Type: Ship (hazmat cat A). MMSI: 563455000.

Date/timePositionNaut miles runAvg speedWind from/ knotsBaromVisibWave heightAir tempDewpointWater temp
2015-Jan-21 10:25N 34°38' W 024°11'1719.5
2015-Jan-21 09:34N 34°43' W 023°52'2119.7
2015-Jan-21 08:30N 34°45' W 023°27'  
2015-Jan-16 12:26N 37°42' E 009°23'14618.6
2015-Jan-16 04:33N 36°58' E 012°18'2718.9
2015-Jan-16 03:09N 36°50' E 012°50'1118.8
2015-Jan-16 02:33N 36°47' E 013°04'1919.2
2015-Jan-16 01:33N 36°43' E 013°27'1918.7
2015-Jan-16 00:33N 36°37' E 013°49'1918.9
2015-Jan-15 23:33N 36°31' E 014°12'1918.8
2015-Jan-15 22:33N 36°25' E 014°34'1918.5
2015-Jan-15 21:33N 36°20' E 014°56'40717.7
2015-Jan-14 22:31N 36°29' E 023°23'2218.9
2015-Jan-14 21:22N 36°46' E 023°40'1518.6
2015-Jan-14 20:33N 36°57' E 023°52'2118.9
2015-Jan-14 19:27N 37°14' E 024°07'1718.6
2015-Jan-14 18:31N 37°29' E 024°20'1818.9
2015-Jan-14 17:33N 37°44' E 024°33'2419.1
2015-Jan-14 16:19N 38°05' E 024°46'2118.7
2015-Jan-14 15:12N 38°20' E 025°04'  

Dump ship's entire track history